Airfield :
LOGIN :

Register | Disclaimer

   EN    FR    IT 

 










Legend :    VFR   Marginal VFR   IFR   Intensive IFR   Very Intensive IFR
Visi :
Ceiling :
>= 8 km
>= 3000ft
5 to 8 km
1000 to 3000 ft
1500m to 5 km
500 to 1000 ft
800 to 1500m
200 to 500 ft
< 800m
< 200 ft
Symbols :   Thunderstorms  Fog  Heavy snow  Heavy precipitations  Wind > 20 kt
SIGMETs :     Misc.  Thunderstorms  Icing  Turbulence  Mountain Waves  Volcanic Ashes







- Airport Elevation : 27 ft
- IATA code : PMI


LEPA - Palma de Mallorca

CURRENT METAR :
  • 192330Z 02003KT 350V060 9999 FEW032 BKN038 06/06 Q1023 NOSIG

EXPIRED METARs :
  • 192300Z 08005KT 9999 FEW032 BKN038 07/07 Q1023 NOSIG
  • 192230Z 08004KT 9999 FEW032 BKN038 08/07 Q1023 NOSIG
  • 192200Z 07002KT 9999 FEW032 BKN038 09/07 Q1023 NOSIG
  • 192130Z 09003KT 9999 FEW032 BKN038 08/07 Q1023 NOSIG
  • 192100Z 08003KT 060V120 9999 FEW032 BKN038 09/07 Q1022 NOSIG

TAF TAF LEPA
Valid from the 20 at 00:00 until the 21 at 00:00 UTC


192300Z 2000/2024 06006KT 9999 BKN030 TX18/2012Z TN03/2006Z
BECMG 2012/2014 22010KT
BECMG 2018/2020 04006KT
No reported NOTAMs for that airfield.



MET'MAP, your aeronautical weather chart ! - Copyright ORBIFLY December 2007 - Disclaimer

ORBIFLY MET'MAP TEAM :

Programming & Development : Alexandra Zaïnal
Concept & Development : Baudouin d'Aumeries
Co-Development & Prog : Marc-Olivier Méhu
Technical & hardware support : Manuel Goepfert

Contact : metmap@orbifly.com




SOURCES & CREDITS :

   NOAA